Flight Track Log - Related Links

Times and Time Zones

All times are in EDT time to prevent confusion due to time zone crossing. See the N523JM flight status page for this flight to view local times or setup timezone preferences in your user account.

Time Position Orientation Groundspeed Altitude Reporting Facility
EDT Latitude Longitude Course Direction KTS MPH feet Rate Location/Type
Mon 02:08:08 PM 38.5322 -107.8922 78° East 180 207 6,200  Level Denver Center
Mon 02:09:10 PM 38.5856 -107.9183 339° North 217 250 8,900 2,903 Climbing Denver Center
Mon 02:10:00 PM 38.6615 -107.0010 77° East  Level Estimated
Mon 02:10:12 PM 38.5683 -108.0092 256° West 247 284 12,200  Level Denver Center
Mon 02:11:00 PM 38.6861 -106.8518 78° East  Level Estimated
Mon 02:11:14 PM 38.4981 -107.9664 155° Southeast 296 341 15,200  Level Denver Center
Mon 02:12:00 PM 38.7105 -106.7024 78° East  Level Estimated
Mon 02:12:16 PM 38.4961 -107.8500 91° East 337 388 17,200  Level Denver Center
Mon 02:13:00 PM 38.7348 -106.5530 78° East  Level Estimated
Mon 02:13:18 PM 38.4903 -107.7294 94° East 355 409 18,900  Level Denver Center
Mon 02:14:20 PM 38.4814 -107.5803 94° East 375 432 20,900 1,728 Climbing Denver Center
Mon 02:15:23 PM 38.4758 -107.4439 93° East 398 458 22,500 1,536 Climbing Denver Center
Mon 02:16:25 PM 38.4975 -107.2867 80° East 409 471 24,100 1,403 Climbing Denver Center
Mon 02:17:27 PM 38.5192 -107.1514 78° East 412 474 25,400 1,258 Climbing Denver Center
Mon 02:18:29 PM 38.5419 -107.0022 79° East 424 488 26,700 1,403 Climbing Denver Center
Mon 02:19:31 PM 38.5692 -106.8192 79° East 436 502 28,300 1,452 Climbing Denver Center
Mon 02:20:33 PM 38.5922 -106.6681 79° East 435 501 29,700 1,161 Climbing Denver Center
Mon 02:21:35 PM 38.6144 -106.5144 79° East 439 505 30,700 882 Climbing Denver Center
Mon 02:22:49 PM 38.6375 -106.3586 79° East 446 513 31,700 971 Climbing Denver Center
Mon 02:23:51 PM 38.6681 -106.1550 79° East 453 521 32,900 1,016 Climbing Denver Center
Mon 02:24:53 PM 38.6903 -105.9950 80° East 459 528 33,800 774 Climbing Denver Center
Mon 02:25:55 PM 38.7136 -105.8358 79° East 458 527 34,500 677 Climbing Denver Center
Mon 02:26:57 PM 38.7364 -105.6725 80° East 463 533 35,200 823 Climbing Denver Center
Mon 02:27:59 PM 38.7631 -105.4750 80° East 470 541 36,200 823 Climbing Denver Center
Mon 02:29:01 PM 38.7858 -105.3139 80° East 465 535 36,900 387 Climbing Denver Center
Mon 02:30:03 PM 38.8089 -105.1514 80° East 466 536 37,000 48 Climbing Denver Center
Mon 02:31:05 PM 38.8306 -104.9867 80° East 473 544 37,000  Level Denver Center
Mon 02:32:07 PM 38.8533 -104.8178 80° East 479 551 37,000  Level Denver Center
Mon 02:33:09 PM 38.8803 -104.6178 80° East 478 550 37,000  Level Denver Center
Mon 02:34:11 PM 38.9019 -104.4486 81° East 482 555 37,000  Level Denver Center
Mon 02:35:12 PM 38.9247 -104.2778 80° East 486 559 37,000  Level Denver Center
Mon 02:36:27 PM 38.9503 -104.0736 81° East 487 560 37,000  Level Denver Center
Mon 02:37:29 PM 38.9725 -103.9031 80° East 487 560 37,000  Level Denver Center
Mon 02:38:30 PM 38.9928 -103.7333 81° East 485 558 37,000  Level Denver Center
Mon 02:39:32 PM 39.0181 -103.5294 81° East 484 557 37,000  Level Denver Center
Mon 02:40:34 PM 39.0394 -103.3583 81° East 486 559 37,000  Level Denver Center
Mon 02:41:36 PM 39.0594 -103.1869 81° East 487 560 37,000  Level Denver Center
Mon 02:42:38 PM 39.0789 -103.0172 82° East 485 558 37,000  Level Denver Center
Mon 02:43:40 PM 39.0989 -102.8453 81° East 486 559 37,000  Level Denver Center
Mon 02:44:42 PM 39.1222 -102.6461 81° East 489 563 37,000  Level Denver Center
Mon 02:45:44 PM 39.1408 -102.4794 82° East 490 564 37,000  Level Denver Center
Mon 02:46:46 PM 39.1625 -102.2861 82° East 490 564 37,000  Level Denver Center
Mon 02:47:48 PM 39.1806 -102.1181 82° East 493 567 37,000  Level Denver Center
Mon 02:48:49 PM 39.2014 -101.9239 82° East 490 564 37,000  Level Denver Center
Mon 02:49:51 PM 39.2192 -101.7569 82° East 490 564 37,000  Level Denver Center
Mon 02:50:53 PM 39.2378 -101.5789 82° East 488 562 37,000  Level Denver Center
Mon 02:51:55 PM 39.2544 -101.4147 82° East 486 559 37,000  Level Denver Center
Mon 02:52:56 PM 39.2717 -101.2494 82° East 487 560 37,000  Level Denver Center
Mon 02:53:59 PM 39.2911 -101.0564 83° East 486 559 37,000  Level Denver Center
Mon 02:55:01 PM 39.3100 -100.8653 83° East 483 556 37,000  Level Denver Center
Mon 02:56:02 PM 39.3261 -100.6975 83° East 490 564 37,000  Level Denver Center
Mon 02:57:04 PM 39.3450 -100.5039 83° East 489 563 37,000  Level Denver Center
Mon 02:58:06 PM 39.3603 -100.3350 83° East 493 567 37,000  Level Denver Center
Mon 02:59:08 PM 39.3781 -100.1386 83° East 494 568 37,000  Level Denver Center
Mon 03:00:10 PM 39.3939 -99.9719 83° East 491 565 37,000  Level Denver Center
Mon 03:01:12 PM 39.4111 -99.7756 83° East 493 567 37,000  Level Denver Center
Mon 03:02:14 PM 39.4258 -99.6064 84° East 494 568 37,000  Level Denver Center
Mon 03:03:16 PM 39.4425 -99.4086 84° East 497 572 37,000  Level Denver Center
Mon 03:04:18 PM 39.4575 -99.2358 84° East 495 570 37,000  Level Denver Center
Mon 03:05:20 PM 39.4719 -99.0581 84° East 496 571 37,000  Level Denver Center
Mon 03:06:22 PM 39.4864 -98.8817 84° East 496 571 37,000  Level Denver Center
Mon 03:07:24 PM 39.4997 -98.7042 84° East 496 571 37,000  Level Denver Center
Mon 03:08:27 PM 39.5158 -98.5208 83° East 499 574 37,000  Level Kansas City Center
Mon 03:09:30 PM 39.5297 -98.3417 84° East 499 574 37,000  Level Kansas City Center
Mon 03:10:31 PM 39.5456 -98.1272 84° East 498 573 37,000  Level Kansas City Center
Mon 03:11:35 PM 39.5589 -97.9478 84° East 499 574 37,000  Level Kansas City Center
Mon 03:12:35 PM 39.5725 -97.7744 84° East 504 580 37,000  Level Kansas City Center
Mon 03:13:39 PM 39.5850 -97.5975 85° East 498 573 37,000  Level Kansas City Center
Mon 03:14:40 PM 39.5997 -97.3864 85° East 494 568 37,000  Level Kansas City Center
Mon 03:15:41 PM 39.6114 -97.2125 85° East 489 563 37,000  Level Kansas City Center
Mon 03:16:46 PM 39.6211 -97.0247 86° East 493 567 37,000  Level Kansas City Center
Mon 03:17:47 PM 39.6336 -96.8392 85° East 492 566 37,000  Level Kansas City Center
Mon 03:18:49 PM 39.6422 -96.6847 86° East 491 565 37,000  Level Kansas City Center
Mon 03:19:50 PM 39.6553 -96.4872 85° East 492 566 37,000  Level Kansas City Center
Mon 03:20:51 PM 39.6644 -96.3183 86° East 491 565 37,000  Level Kansas City Center
Mon 03:21:55 PM 39.6750 -96.1200 86° East 492 566 37,000  Level Kansas City Center
Mon 03:22:57 PM 39.6844 -95.9517 86° East 490 564 37,000  Level Kansas City Center
Mon 03:23:58 PM 39.6942 -95.7536 86° East 491 565 37,000  Level Kansas City Center
Mon 03:25:02 PM 39.7031 -95.5847 86° East 489 563 37,000  Level Kansas City Center
Mon 03:26:04 PM 39.7128 -95.3858 86° East 492 566 37,000  Level Kansas City Center
Mon 03:27:05 PM 39.7222 -95.2161 86° East 490 564 37,000  Level Kansas City Center
Mon 03:28:06 PM 39.7294 -95.0458 87° East 490 564 37,000  Level Kansas City Center
Mon 03:29:10 PM 39.7386 -94.8472 87° East 491 565 37,000  Level Kansas City Center
Mon 03:30:11 PM 39.7467 -94.6772 86° East 491 565 37,000  Level Kansas City Center
Mon 03:31:12 PM 39.7564 -94.4764 86° East 497 572 37,000  Level Kansas City Center
Mon 03:32:16 PM 39.7628 -94.3081 87° East 490 564 37,000  Level Kansas City Center
Mon 03:33:16 PM 39.7706 -94.1094 87° East 491 565 37,000  Level Kansas City Center
Mon 03:34:18 PM 39.7772 -93.9397 87° East 490 564 37,000  Level Kansas City Center
Mon 03:35:21 PM 39.7836 -93.7694 87° East 492 566 37,000  Level Kansas City Center
Mon 03:36:22 PM 39.7883 -93.5786 88° East 503 579 37,000  Level Kansas City Center
Mon 03:37:25 PM 39.7953 -93.4011 87° East 501 577 37,000  Level Kansas City Center
Mon 03:38:26 PM 39.8036 -93.1947 87° East 490 564 37,000  Level Kansas City Center
Mon 03:39:30 PM 39.8094 -93.0189 87° East 491 565 37,000  Level Kansas City Center
Mon 03:40:30 PM 39.8136 -92.8406 88° East 500 575 37,000  Level Kansas City Center
Mon 03:41:33 PM 39.8181 -92.6636 88° East 499 574 37,000  Level Kansas City Center
Mon 03:42:33 PM 39.8239 -92.4497 88° East 503 579 37,000  Level Kansas City Center
Mon 03:43:38 PM 39.8278 -92.2744 88° East 497 572 37,000  Level Kansas City Center
Mon 03:44:38 PM 39.8314 -92.0994 88° East 493 567 37,000  Level Kansas City Center
Mon 03:45:39 PM 39.8350 -91.9233 88° East 494 568 37,000  Level Kansas City Center
Mon 03:46:43 PM 39.8386 -91.7461 88° East 494 568 37,000  Level Kansas City Center
Mon 03:47:44 PM 39.8428 -91.5358 88° East 492 566 37,000  Level Kansas City Center
Mon 03:48:45 PM 39.8453 -91.3583 89° East 494 568 37,000  Level Kansas City Center
Mon 03:49:49 PM 39.8461 -91.1822 90° East 492 566 37,000  Level Kansas City Center
Mon 03:50:50 PM 39.8494 -91.0078 89° East 490 564 37,000  Level Kansas City Center
Mon 03:51:51 PM 39.8525 -90.8278 89° East 488 562 37,000  Level Kansas City Center
Mon 03:52:54 PM 39.8542 -90.6514 89° East 489 563 37,000  Level Kansas City Center
Mon 03:53:56 PM 39.8558 -90.4414 89° East 488 562 37,000  Level Kansas City Center
Mon 03:54:56 PM 39.8564 -90.2658 90° East 488 562 37,000  Level Kansas City Center
Mon 03:56:00 PM 39.8572 -90.0894 90° East 488 562 37,000  Level Kansas City Center
Mon 03:57:00 PM 39.8583 -89.9133 89° East 489 563 37,000  Level Kansas City Center
Mon 03:58:02 PM 39.8589 -89.7389 90° East 487 560 37,000  Level Kansas City Center
Mon 03:59:06 PM 39.8578 -89.5661 90° East 484 557 37,000  Level Kansas City Center
Mon 04:00:08 PM 39.8586 -89.3581 90° East 483 556 37,000  Level Kansas City Center
Mon 04:01:09 PM 39.8581 -89.1839 90° East 482 555 37,000  Level Kansas City Center
Mon 04:02:10 PM 39.8575 -89.0117 90° East 480 552 37,000  Level Kansas City Center
Mon 04:03:14 PM 39.8567 -88.8372 90° East 482 555 37,000  Level Kansas City Center
Mon 04:04:14 PM 39.8558 -88.6650 90° East 481 554 37,000  Level Kansas City Center
Mon 04:05:16 PM 39.8550 -88.4919 90° East 480 552 37,000  Level Kansas City Center
Mon 04:06:19 PM 39.8522 -88.2847 91° East 479 551 37,000  Level Kansas City Center
Mon 04:07:20 PM 39.8497 -88.0994 91° East 478 550 37,000  Level Kansas City Center
Mon 04:08:24 PM 39.8475 -87.9258 91° East 478 550 37,000  Level Kansas City Center
Mon 04:09:25 PM 39.8456 -87.7508 91° East 479 551 37,000  Level Kansas City Center
Mon 04:10:29 PM 39.8425 -87.5781 91° East 478 550 37,000  Level Kansas City Center
Mon 04:11:55 PM 39.8372 -87.3219 91° East 479 551 37,000  Level Indianapolis Center
Mon 04:12:57 PM 39.8522 -87.1544 83° East 470 541 37,000  Level Indianapolis Center
Mon 04:13:59 PM 39.8711 -86.9858 82° East 470 541 37,000  Level Indianapolis Center
Mon 04:15:01 PM 39.8886 -86.8183 82° East 468 539 37,000 -242 Level Indianapolis Center
Mon 04:16:03 PM 39.9083 -86.6489 81° East 470 541 36,500 -968 Descending Indianapolis Center
Mon 04:17:05 PM 39.9578 -86.4500 72° East 476 548 35,000 -1,613 Descending Indianapolis Center
Mon 04:19:09 PM 40.0053 -86.0975 80° East 492 566 31,500 -1,613 Descending Indianapolis Center
Mon 04:20:11 PM 40.0300 -85.9192 80° East 497 572 30,000 -823 Descending Indianapolis Center
Mon 04:21:13 PM 40.0533 -85.7397 80° East 501 577 29,800 -339 Descending Indianapolis Center
Mon 04:22:15 PM 40.0781 -85.5608 80° East 502 578 29,300 -387 Descending Indianapolis Center
Mon 04:23:17 PM 40.1017 -85.3792 80° East 507 583 29,000 -145 Descending Indianapolis Center
Mon 04:24:19 PM 40.1303 -85.1622 80° East 505 581 29,000 -242 Level Indianapolis Center
Mon 04:25:21 PM 40.1536 -84.9819 80° East 505 581 28,500 -816 Descending Indianapolis Center
Mon 04:26:24 PM 40.1750 -84.8225 80° East 509 586 27,300 -1,392 Descending Indianapolis Center
Mon 04:27:26 PM 40.2014 -84.6083 81° East 498 573 25,600 -1,548 Descending Indianapolis Center
Mon 04:28:28 PM 40.2047 -84.4319 89° East 486 559 24,100 -1,500 Descending Indianapolis Center
Mon 04:29:30 PM 40.2072 -84.2572 89° East 482 555 22,500 -1,548 Descending Indianapolis Center
Mon 04:30:32 PM 40.2192 -84.0839 85° East 478 550 20,900 -1,742 Descending Indianapolis Center
Mon 04:31:34 PM 40.2297 -83.9100 85° East 479 551 18,900 -2,018 Descending Indianapolis Center
Mon 04:32:22 PM 40.2372 -83.7483 86° East 484 557 17,200 -1,839 Descending Indianapolis Center
Mon 04:32:36 PM 40.2375 -83.7328 89° East 484 557 17,000 -2,066 Descending Indianapolis Center
Mon 04:33:23 PM 40.2467 -83.5717 86° East 451 519 15,100 -2,419 Descending Indianapolis Center
Mon 04:33:38 PM 40.2500 -83.5353 83° East 450 518 14,500 -2,459 Descending Indianapolis Center
Mon 04:34:24 PM 40.2550 -83.4250 87° East 378 435 12,600 -2,419 Descending Indianapolis Center
Mon 04:34:40 PM 40.2572 -83.3939 85° East 395 455 12,000 -2,557 Descending Indianapolis Center
Mon 04:35:25 PM 40.2458 -83.3028 99° East 327 376 10,000 -2,613 Descending Indianapolis Center
Mon 04:35:42 PM 40.2411 -83.2756 103° East 329 379 9,300 -2,597 Descending Indianapolis Center
Mon 04:36:32 PM 40.2256 -83.1869 103° East 298 343 7,100 -2,516 Descending Indianapolis Center
Mon 04:36:44 PM 40.2233 -83.1678 99° East 308 354 6,700 -2,778 Descending Indianapolis Center
Mon 04:37:26 PM 40.2114 -83.0942 102° East 278 320 4,600 -1,839 Descending Indianapolis Center
Mon 04:37:46 PM 40.2047 -83.0722 112° Southeast 288 331 4,800 -590 Climbing Indianapolis Center
Mon 04:38:27 PM 40.1861 -83.0078 111° Southeast 258 297 4,000 -871 Descending Indianapolis Center
Mon 04:38:48 PM 40.1808 -82.9844 106° East 272 313 3,900 -537 Descending Indianapolis Center
Mon 04:39:34 PM 40.1353 -82.9669 164° South 182 209 3,400 -484 Descending Indianapolis Center
Mon 04:39:50 PM 40.1317 -82.9658 167° South 223 257 3,400 -689 Level Indianapolis Center
Mon 04:40:35 PM 40.0869 -82.9672 181° South 165 190 2,700 -1,065 Descending Indianapolis Center
Mon 04:40:52 PM 40.0806 -82.9800 237° Southwest 191 220 2,300 -1,091 Descending Indianapolis Center
Mon 04:41:30 PM 40.0786 -83.0125 266° West 135 155 1,700 -857 Descending Indianapolis Center
Mon 04:41:55 PM 40.0781 -83.0325 268° West 159 183 1,400 -414 Descending Indianapolis Center
Mon 04:42:57 PM 40.0769 -83.0800 268° West 152 175 1,100 -290 Descending Indianapolis Center
Mon 04:44:00 PM 40.0798 -83.0732 North  Level Estimated

Login

Don't have an account? Register now (free) for customized features, flight alerts, and more!